sensor_id;sensor_type;location;lat;lon;timestamp;temperature;humidity
12771;DHT22;6449;47.666;9.160;2023-05-07T00:01:09;14.30;99.90
12771;DHT22;6449;47.666;9.160;2023-05-07T00:06:02;14.30;99.90
12771;DHT22;6449;47.666;9.160;2023-05-07T00:10:56;14.20;99.90
12771;DHT22;6449;47.666;9.160;2023-05-07T00:15:50;14.10;99.90
12771;DHT22;6449;47.666;9.160;2023-05-07T00:20:44;14.00;99.90
12771;DHT22;6449;47.666;9.160;2023-05-07T00:25:38;14.10;99.90
12771;DHT22;6449;47.666;9.160;2023-05-07T00:30:31;14.20;99.90
12771;DHT22;6449;47.666;9.160;2023-05-07T00:35:25;14.10;99.90
12771;DHT22;6449;47.666;9.160;2023-05-07T00:40:20;14.20;99.90
12771;DHT22;6449;47.666;9.160;2023-05-07T00:45:13;14.20;99.90
12771;DHT22;6449;47.666;9.160;2023-05-07T00:50:08;14.20;99.90
12771;DHT22;6449;47.666;9.160;2023-05-07T00:55:06;14.00;99.90
12771;DHT22;6449;47.666;9.160;2023-05-07T01:00:01;13.80;99.90
12771;DHT22;6449;47.666;9.160;2023-05-07T01:04:56;13.60;99.90
12771;DHT22;6449;47.666;9.160;2023-05-07T01:09:50;13.50;99.90
12771;DHT22;6449;47.666;9.160;2023-05-07T01:14:44;13.60;99.90
12771;DHT22;6449;47.666;9.160;2023-05-07T01:19:39;13.70;99.90
12771;DHT22;6449;47.666;9.160;2023-05-07T01:24:35;13.70;99.90
12771;DHT22;6449;47.666;9.160;2023-05-07T01:29:29;13.70;99.90
12771;DHT22;6449;47.666;9.160;2023-05-07T01:34:23;13.60;99.90
12771;DHT22;6449;47.666;9.160;2023-05-07T01:39:18;13.60;99.90
12771;DHT22;6449;47.666;9.160;2023-05-07T01:44:14;13.60;99.90
12771;DHT22;6449;47.666;9.160;2023-05-07T01:49:09;13.70;99.90
12771;DHT22;6449;47.666;9.160;2023-05-07T01:54:03;13.60;99.90
12771;DHT22;6449;47.666;9.160;2023-05-07T01:58:56;13.60;99.90
12771;DHT22;6449;47.666;9.160;2023-05-07T02:03:51;13.70;99.90
12771;DHT22;6449;47.666;9.160;2023-05-07T02:08:46;13.70;99.90
12771;DHT22;6449;47.666;9.160;2023-05-07T02:13:41;13.50;99.90
12771;DHT22;6449;47.666;9.160;2023-05-07T02:18:34;13.50;99.90
12771;DHT22;6449;47.666;9.160;2023-05-07T02:23:29;13.40;99.90
12771;DHT22;6449;47.666;9.160;2023-05-07T02:28:23;13.40;99.90
12771;DHT22;6449;47.666;9.160;2023-05-07T02:33:16;13.40;99.90
12771;DHT22;6449;47.666;9.160;2023-05-07T02:38:09;13.30;99.90
12771;DHT22;6449;47.666;9.160;2023-05-07T02:43:04;13.20;99.90
12771;DHT22;6449;47.666;9.160;2023-05-07T02:47:58;13.30;99.90
12771;DHT22;6449;47.666;9.160;2023-05-07T02:52:51;13.10;99.90
12771;DHT22;6449;47.666;9.160;2023-05-07T02:57:45;13.00;99.90
12771;DHT22;6449;47.666;9.160;2023-05-07T03:02:39;13.10;99.90
12771;DHT22;6449;47.666;9.160;2023-05-07T03:07:33;13.10;99.90
12771;DHT22;6449;47.666;9.160;2023-05-07T03:12:27;13.10;99.90
12771;DHT22;6449;47.666;9.160;2023-05-07T03:17:20;13.00;99.90
12771;DHT22;6449;47.666;9.160;2023-05-07T03:22:17;12.80;99.90
12771;DHT22;6449;47.666;9.160;2023-05-07T03:27:10;12.80;99.90
12771;DHT22;6449;47.666;9.160;2023-05-07T03:32:04;12.70;99.90
12771;DHT22;6449;47.666;9.160;2023-05-07T03:36:57;12.70;99.90
12771;DHT22;6449;47.666;9.160;2023-05-07T03:41:52;12.70;99.90
12771;DHT22;6449;47.666;9.160;2023-05-07T03:46:46;12.60;99.90
12771;DHT22;6449;47.666;9.160;2023-05-07T03:51:39;12.50;99.90
12771;DHT22;6449;47.666;9.160;2023-05-07T03:56:33;12.50;99.90
12771;DHT22;6449;47.666;9.160;2023-05-07T04:01:28;12.60;99.90
12771;DHT22;6449;47.666;9.160;2023-05-07T04:06:21;12.60;99.90
12771;DHT22;6449;47.666;9.160;2023-05-07T04:11:14;12.60;99.90
12771;DHT22;6449;47.666;9.160;2023-05-07T04:16:08;12.50;99.90
12771;DHT22;6449;47.666;9.160;2023-05-07T04:21:03;12.60;99.90
12771;DHT22;6449;47.666;9.160;2023-05-07T04:25:56;12.40;99.90
12771;DHT22;6449;47.666;9.160;2023-05-07T04:30:50;12.40;99.90
12771;DHT22;6449;47.666;9.160;2023-05-07T04:35:43;12.40;99.90
12771;DHT22;6449;47.666;9.160;2023-05-07T04:40:38;12.50;99.90
12771;DHT22;6449;47.666;9.160;2023-05-07T04:45:31;12.60;99.90
12771;DHT22;6449;47.666;9.160;2023-05-07T04:50:25;12.70;99.90
12771;DHT22;6449;47.666;9.160;2023-05-07T04:55:18;12.90;99.90
12771;DHT22;6449;47.666;9.160;2023-05-07T05:00:18;13.30;99.90
12771;DHT22;6449;47.666;9.160;2023-05-07T05:05:14;13.50;99.90
12771;DHT22;6449;47.666;9.160;2023-05-07T05:10:08;13.60;99.90
12771;DHT22;6449;47.666;9.160;2023-05-07T05:15:02;13.70;99.90
12771;DHT22;6449;47.666;9.160;2023-05-07T05:19:58;13.70;99.90
12771;DHT22;6449;47.666;9.160;2023-05-07T05:24:51;13.80;99.90
12771;DHT22;6449;47.666;9.160;2023-05-07T05:29:45;13.90;99.90
12771;DHT22;6449;47.666;9.160;2023-05-07T05:34:38;13.90;99.90
12771;DHT22;6449;47.666;9.160;2023-05-07T05:39:33;14.00;99.90
12771;DHT22;6449;47.666;9.160;2023-05-07T05:44:26;13.90;99.90
12771;DHT22;6449;47.666;9.160;2023-05-07T05:49:19;13.80;99.90
12771;DHT22;6449;47.666;9.160;2023-05-07T05:54:13;13.80;99.90
12771;DHT22;6449;47.666;9.160;2023-05-07T05:59:08;13.90;99.90
12771;DHT22;6449;47.666;9.160;2023-05-07T06:04:02;14.10;99.90
12771;DHT22;6449;47.666;9.160;2023-05-07T06:08:55;14.10;99.90
12771;DHT22;6449;47.666;9.160;2023-05-07T06:13:49;14.00;99.90
12771;DHT22;6449;47.666;9.160;2023-05-07T06:18:44;13.90;99.90
12771;DHT22;6449;47.666;9.160;2023-05-07T06:23:38;13.90;99.90
12771;DHT22;6449;47.666;9.160;2023-05-07T06:28:32;14.00;99.90
12771;DHT22;6449;47.666;9.160;2023-05-07T06:33:27;14.30;99.90
12771;DHT22;6449;47.666;9.160;2023-05-07T06:38:22;14.60;99.90
12771;DHT22;6449;47.666;9.160;2023-05-07T06:43:15;14.60;99.90
12771;DHT22;6449;47.666;9.160;2023-05-07T06:48:09;14.60;99.90
12771;DHT22;6449;47.666;9.160;2023-05-07T06:53:03;14.90;99.90
12771;DHT22;6449;47.666;9.160;2023-05-07T06:57:58;15.00;99.90
12771;DHT22;6449;47.666;9.160;2023-05-07T07:02:53;15.20;99.90
12771;DHT22;6449;47.666;9.160;2023-05-07T07:07:46;15.40;99.90
12771;DHT22;6449;47.666;9.160;2023-05-07T07:12:50;15.30;99.90
12771;DHT22;6449;47.666;9.160;2023-05-07T07:17:46;15.20;99.90
12771;DHT22;6449;47.666;9.160;2023-05-07T07:22:39;15.30;99.90
12771;DHT22;6449;47.666;9.160;2023-05-07T07:27:32;15.60;99.90
12771;DHT22;6449;47.666;9.160;2023-05-07T07:32:26;15.90;99.90
12771;DHT22;6449;47.666;9.160;2023-05-07T07:37:21;16.00;99.90
12771;DHT22;6449;47.666;9.160;2023-05-07T07:42:14;16.20;99.90
12771;DHT22;6449;47.666;9.160;2023-05-07T07:47:07;16.30;99.90
12771;DHT22;6449;47.666;9.160;2023-05-07T07:52:01;16.50;99.90
12771;DHT22;6449;47.666;9.160;2023-05-07T07:56:56;16.70;99.90
12771;DHT22;6449;47.666;9.160;2023-05-07T08:01:49;16.90;99.90
12771;DHT22;6449;47.666;9.160;2023-05-07T08:06:46;17.00;99.90
12771;DHT22;6449;47.666;9.160;2023-05-07T08:11:39;17.30;99.90
12771;DHT22;6449;47.666;9.160;2023-05-07T08:16:35;17.40;99.90
12771;DHT22;6449;47.666;9.160;2023-05-07T08:21:28;17.60;99.90
12771;DHT22;6449;47.666;9.160;2023-05-07T08:26:25;17.70;99.90
12771;DHT22;6449;47.666;9.160;2023-05-07T08:31:18;17.60;99.90
12771;DHT22;6449;47.666;9.160;2023-05-07T08:36:13;17.90;99.90
12771;DHT22;6449;47.666;9.160;2023-05-07T08:41:09;18.00;99.90
12771;DHT22;6449;47.666;9.160;2023-05-07T08:46:04;18.30;99.90
12771;DHT22;6449;47.666;9.160;2023-05-07T08:51:01;18.30;99.90
12771;DHT22;6449;47.666;9.160;2023-05-07T08:55:56;18.50;99.90
12771;DHT22;6449;47.666;9.160;2023-05-07T09:00:51;18.70;99.90
12771;DHT22;6449;47.666;9.160;2023-05-07T09:11:35;18.90;99.90
12771;DHT22;6449;47.666;9.160;2023-05-07T09:16:29;18.90;99.90
12771;DHT22;6449;47.666;9.160;2023-05-07T09:21:23;19.20;99.90
12771;DHT22;6449;47.666;9.160;2023-05-07T09:26:17;19.20;99.90
12771;DHT22;6449;47.666;9.160;2023-05-07T09:31:13;19.30;99.90
12771;DHT22;6449;47.666;9.160;2023-05-07T09:36:09;19.40;99.90
12771;DHT22;6449;47.666;9.160;2023-05-07T09:41:04;19.60;99.90
12771;DHT22;6449;47.666;9.160;2023-05-07T09:45:59;19.60;99.90
12771;DHT22;6449;47.666;9.160;2023-05-07T09:51:02;19.80;99.90
12771;DHT22;6449;47.666;9.160;2023-05-07T09:55:57;20.10;99.90
12771;DHT22;6449;47.666;9.160;2023-05-07T10:00:56;20.40;99.90
12771;DHT22;6449;47.666;9.160;2023-05-07T10:05:50;20.50;99.90
12771;DHT22;6449;47.666;9.160;2023-05-07T10:10:46;20.50;99.90
12771;DHT22;6449;47.666;9.160;2023-05-07T10:15:41;20.60;99.90
12771;DHT22;6449;47.666;9.160;2023-05-07T10:20:36;20.40;99.90
12771;DHT22;6449;47.666;9.160;2023-05-07T10:25:32;20.30;99.90
12771;DHT22;6449;47.666;9.160;2023-05-07T10:30:34;20.30;99.90
12771;DHT22;6449;47.666;9.160;2023-05-07T10:35:39;20.40;99.90
12771;DHT22;6449;47.666;9.160;2023-05-07T10:40:35;20.60;99.90
12771;DHT22;6449;47.666;9.160;2023-05-07T10:45:31;20.70;99.90
12771;DHT22;6449;47.666;9.160;2023-05-07T10:50:25;20.80;99.90
12771;DHT22;6449;47.666;9.160;2023-05-07T10:55:19;20.80;99.90
12771;DHT22;6449;47.666;9.160;2023-05-07T11:00:42;20.60;99.90
12771;DHT22;6449;47.666;9.160;2023-05-07T11:05:36;20.40;99.90
12771;DHT22;6449;47.666;9.160;2023-05-07T11:10:50;20.30;99.90
12771;DHT22;6449;47.666;9.160;2023-05-07T11:15:47;20.40;99.90
12771;DHT22;6449;47.666;9.160;2023-05-07T11:20:55;20.40;99.90
12771;DHT22;6449;47.666;9.160;2023-05-07T11:25:49;20.40;99.90
12771;DHT22;6449;47.666;9.160;2023-05-07T11:30:43;20.50;99.90
12771;DHT22;6449;47.666;9.160;2023-05-07T11:35:39;20.60;99.90
12771;DHT22;6449;47.666;9.160;2023-05-07T11:40:35;20.50;99.90
12771;DHT22;6449;47.666;9.160;2023-05-07T11:45:41;20.70;99.90
12771;DHT22;6449;47.666;9.160;2023-05-07T11:50:35;20.70;99.90
12771;DHT22;6449;47.666;9.160;2023-05-07T11:55:29;20.80;99.90
12771;DHT22;6449;47.666;9.160;2023-05-07T12:00:23;20.70;99.90
12771;DHT22;6449;47.666;9.160;2023-05-07T12:05:16;20.60;99.90
12771;DHT22;6449;47.666;9.160;2023-05-07T12:10:11;20.50;99.90
12771;DHT22;6449;47.666;9.160;2023-05-07T12:15:08;20.30;99.90
12771;DHT22;6449;47.666;9.160;2023-05-07T12:20:03;20.10;99.90
12771;DHT22;6449;47.666;9.160;2023-05-07T12:24:58;20.00;99.90
12771;DHT22;6449;47.666;9.160;2023-05-07T12:29:51;20.00;99.90
12771;DHT22;6449;47.666;9.160;2023-05-07T12:34:49;20.10;99.90
12771;DHT22;6449;47.666;9.160;2023-05-07T12:39:47;20.20;99.90
12771;DHT22;6449;47.666;9.160;2023-05-07T12:49:43;20.40;99.90
12771;DHT22;6449;47.666;9.160;2023-05-07T12:54:39;20.40;99.90
12771;DHT22;6449;47.666;9.160;2023-05-07T12:59:33;20.60;99.90
12771;DHT22;6449;47.666;9.160;2023-05-07T13:04:27;20.70;99.90
12771;DHT22;6449;47.666;9.160;2023-05-07T13:14:29;21.00;99.90
12771;DHT22;6449;47.666;9.160;2023-05-07T13:19:22;21.00;99.90
12771;DHT22;6449;47.666;9.160;2023-05-07T13:24:16;21.10;99.90
12771;DHT22;6449;47.666;9.160;2023-05-07T13:29:09;21.40;99.90
12771;DHT22;6449;47.666;9.160;2023-05-07T13:34:04;21.60;99.90
12771;DHT22;6449;47.666;9.160;2023-05-07T13:38:57;21.80;99.90
12771;DHT22;6449;47.666;9.160;2023-05-07T13:43:52;21.80;99.90
12771;DHT22;6449;47.666;9.160;2023-05-07T13:48:45;21.80;99.90
12771;DHT22;6449;47.666;9.160;2023-05-07T13:53:40;21.70;99.90
12771;DHT22;6449;47.666;9.160;2023-05-07T13:58:33;21.60;99.90
12771;DHT22;6449;47.666;9.160;2023-05-07T14:03:35;21.60;99.90
12771;DHT22;6449;47.666;9.160;2023-05-07T14:08:31;21.60;99.90
12771;DHT22;6449;47.666;9.160;2023-05-07T14:13:26;21.60;99.90
12771;DHT22;6449;47.666;9.160;2023-05-07T14:18:19;21.60;99.90
12771;DHT22;6449;47.666;9.160;2023-05-07T14:23:13;21.50;99.90
12771;DHT22;6449;47.666;9.160;2023-05-07T14:28:06;21.40;99.90
12771;DHT22;6449;47.666;9.160;2023-05-07T14:33:04;21.30;99.90
12771;DHT22;6449;47.666;9.160;2023-05-07T14:37:57;21.00;99.90
12771;DHT22;6449;47.666;9.160;2023-05-07T14:42:50;20.90;99.90
12771;DHT22;6449;47.666;9.160;2023-05-07T14:47:44;20.60;99.90
12771;DHT22;6449;47.666;9.160;2023-05-07T14:52:38;20.40;99.90
12771;DHT22;6449;47.666;9.160;2023-05-07T14:57:32;20.30;99.90
12771;DHT22;6449;47.666;9.160;2023-05-07T15:07:40;20.30;99.90
12771;DHT22;6449;47.666;9.160;2023-05-07T15:22:45;20.10;99.90
12771;DHT22;6449;47.666;9.160;2023-05-07T15:27:38;20.00;99.90
12771;DHT22;6449;47.666;9.160;2023-05-07T15:32:32;19.90;99.90
12771;DHT22;6449;47.666;9.160;2023-05-07T15:37:26;19.90;99.90
12771;DHT22;6449;47.666;9.160;2023-05-07T15:58:02;19.80;99.90
12771;DHT22;6449;47.666;9.160;2023-05-07T16:02:57;19.80;99.90
12771;DHT22;6449;47.666;9.160;2023-05-07T16:07:51;19.80;99.90
12771;DHT22;6449;47.666;9.160;2023-05-07T16:12:48;19.60;99.90
12771;DHT22;6449;47.666;9.160;2023-05-07T16:17:46;19.50;99.90
12771;DHT22;6449;47.666;9.160;2023-05-07T16:22:41;19.40;99.90
12771;DHT22;6449;47.666;9.160;2023-05-07T16:27:35;19.20;99.90
12771;DHT22;6449;47.666;9.160;2023-05-07T16:32:36;19.10;99.90
12771;DHT22;6449;47.666;9.160;2023-05-07T16:37:39;18.90;99.90
12771;DHT22;6449;47.666;9.160;2023-05-07T16:42:40;18.90;99.90
12771;DHT22;6449;47.666;9.160;2023-05-07T16:47:55;18.90;99.90
12771;DHT22;6449;47.666;9.160;2023-05-07T16:52:50;18.80;99.90
12771;DHT22;6449;47.666;9.160;2023-05-07T16:57:44;18.70;99.90
12771;DHT22;6449;47.666;9.160;2023-05-07T17:02:37;18.60;99.90
12771;DHT22;6449;47.666;9.160;2023-05-07T17:07:31;18.50;99.90
12771;DHT22;6449;47.666;9.160;2023-05-07T17:12:25;18.30;99.90
12771;DHT22;6449;47.666;9.160;2023-05-07T17:17:20;18.20;99.90
12771;DHT22;6449;47.666;9.160;2023-05-07T17:32:18;17.90;99.90
12771;DHT22;6449;47.666;9.160;2023-05-07T17:37:12;17.80;99.90
12771;DHT22;6449;47.666;9.160;2023-05-07T17:42:06;17.70;99.90
12771;DHT22;6449;47.666;9.160;2023-05-07T17:47:00;17.50;99.90
12771;DHT22;6449;47.666;9.160;2023-05-07T17:51:55;17.60;99.90
12771;DHT22;6449;47.666;9.160;2023-05-07T17:56:49;17.30;99.90
12771;DHT22;6449;47.666;9.160;2023-05-07T18:01:45;17.20;99.90
12771;DHT22;6449;47.666;9.160;2023-05-07T18:06:39;17.00;99.90
12771;DHT22;6449;47.666;9.160;2023-05-07T18:11:34;16.90;99.90
12771;DHT22;6449;47.666;9.160;2023-05-07T18:16:30;16.90;99.90
12771;DHT22;6449;47.666;9.160;2023-05-07T18:21:23;16.60;99.90
12771;DHT22;6449;47.666;9.160;2023-05-07T18:26:22;16.50;99.90
12771;DHT22;6449;47.666;9.160;2023-05-07T18:31:27;16.50;99.90
12771;DHT22;6449;47.666;9.160;2023-05-07T18:36:20;16.30;99.90
12771;DHT22;6449;47.666;9.160;2023-05-07T18:41:15;16.30;99.90
12771;DHT22;6449;47.666;9.160;2023-05-07T18:46:11;16.20;99.90
12771;DHT22;6449;47.666;9.160;2023-05-07T18:51:05;16.20;99.90
12771;DHT22;6449;47.666;9.160;2023-05-07T18:56:03;16.20;99.90
12771;DHT22;6449;47.666;9.160;2023-05-07T19:00:57;16.20;99.90
12771;DHT22;6449;47.666;9.160;2023-05-07T19:05:50;16.20;99.90
12771;DHT22;6449;47.666;9.160;2023-05-07T19:10:51;16.20;99.90
12771;DHT22;6449;47.666;9.160;2023-05-07T19:15:49;16.20;99.90
12771;DHT22;6449;47.666;9.160;2023-05-07T19:20:51;16.00;99.90
12771;DHT22;6449;47.666;9.160;2023-05-07T19:25:46;16.00;99.90
12771;DHT22;6449;47.666;9.160;2023-05-07T19:30:43;16.10;99.90
12771;DHT22;6449;47.666;9.160;2023-05-07T19:35:40;16.20;99.90
12771;DHT22;6449;47.666;9.160;2023-05-07T19:40:36;16.30;99.90
12771;DHT22;6449;47.666;9.160;2023-05-07T19:45:29;16.30;99.90
12771;DHT22;6449;47.666;9.160;2023-05-07T19:50:27;16.30;99.90
12771;DHT22;6449;47.666;9.160;2023-05-07T19:55:21;16.20;99.90
12771;DHT22;6449;47.666;9.160;2023-05-07T20:00:16;16.10;99.90
12771;DHT22;6449;47.666;9.160;2023-05-07T20:05:09;16.00;99.90
12771;DHT22;6449;47.666;9.160;2023-05-07T20:10:07;16.10;99.90
12771;DHT22;6449;47.666;9.160;2023-05-07T20:15:01;16.10;99.90
12771;DHT22;6449;47.666;9.160;2023-05-07T20:19:57;16.00;99.90
12771;DHT22;6449;47.666;9.160;2023-05-07T20:24:50;15.80;99.90
12771;DHT22;6449;47.666;9.160;2023-05-07T20:29:45;15.80;99.90
12771;DHT22;6449;47.666;9.160;2023-05-07T20:34:39;15.70;99.90
12771;DHT22;6449;47.666;9.160;2023-05-07T20:39:32;15.70;99.90
12771;DHT22;6449;47.666;9.160;2023-05-07T20:44:26;15.70;99.90
12771;DHT22;6449;47.666;9.160;2023-05-07T20:49:25;15.70;99.90
12771;DHT22;6449;47.666;9.160;2023-05-07T20:54:18;15.80;99.90
12771;DHT22;6449;47.666;9.160;2023-05-07T20:59:16;15.80;99.90
12771;DHT22;6449;47.666;9.160;2023-05-07T21:04:09;15.70;99.90
12771;DHT22;6449;47.666;9.160;2023-05-07T21:09:04;15.60;99.90
12771;DHT22;6449;47.666;9.160;2023-05-07T21:13:58;15.50;99.90
12771;DHT22;6449;47.666;9.160;2023-05-07T21:18:52;15.50;99.90
12771;DHT22;6449;47.666;9.160;2023-05-07T21:23:45;15.40;99.90
12771;DHT22;6449;47.666;9.160;2023-05-07T21:28:40;15.10;99.90
12771;DHT22;6449;47.666;9.160;2023-05-07T21:33:33;15.20;99.90
12771;DHT22;6449;47.666;9.160;2023-05-07T21:38:26;15.20;99.90
12771;DHT22;6449;47.666;9.160;2023-05-07T21:43:20;15.10;99.90
12771;DHT22;6449;47.666;9.160;2023-05-07T21:48:15;15.10;99.90
12771;DHT22;6449;47.666;9.160;2023-05-07T21:53:12;15.00;99.90
12771;DHT22;6449;47.666;9.160;2023-05-07T21:58:05;14.80;99.90
12771;DHT22;6449;47.666;9.160;2023-05-07T22:02:58;14.80;99.90
12771;DHT22;6449;47.666;9.160;2023-05-07T22:07:53;14.80;99.90
12771;DHT22;6449;47.666;9.160;2023-05-07T22:12:47;14.90;99.90
12771;DHT22;6449;47.666;9.160;2023-05-07T22:17:43;14.90;99.90
12771;DHT22;6449;47.666;9.160;2023-05-07T22:22:45;14.80;99.90
12771;DHT22;6449;47.666;9.160;2023-05-07T22:27:44;14.80;99.90
12771;DHT22;6449;47.666;9.160;2023-05-07T22:32:37;14.90;99.90
12771;DHT22;6449;47.666;9.160;2023-05-07T22:37:30;14.90;99.90
12771;DHT22;6449;47.666;9.160;2023-05-07T22:42:24;14.60;99.90
12771;DHT22;6449;47.666;9.160;2023-05-07T22:47:18;14.40;99.90
12771;DHT22;6449;47.666;9.160;2023-05-07T22:52:12;14.30;99.90
12771;DHT22;6449;47.666;9.160;2023-05-07T22:57:05;14.20;99.90
12771;DHT22;6449;47.666;9.160;2023-05-07T23:01:58;14.30;99.90
12771;DHT22;6449;47.666;9.160;2023-05-07T23:06:53;14.30;99.90
12771;DHT22;6449;47.666;9.160;2023-05-07T23:11:46;14.30;99.90
12771;DHT22;6449;47.666;9.160;2023-05-07T23:16:40;14.40;99.90
12771;DHT22;6449;47.666;9.160;2023-05-07T23:21:33;14.60;99.90
12771;DHT22;6449;47.666;9.160;2023-05-07T23:26:28;14.70;99.90
12771;DHT22;6449;47.666;9.160;2023-05-07T23:31:21;14.70;99.90
12771;DHT22;6449;47.666;9.160;2023-05-07T23:36:15;14.80;99.90
12771;DHT22;6449;47.666;9.160;2023-05-07T23:41:08;14.80;99.90
12771;DHT22;6449;47.666;9.160;2023-05-07T23:46:03;14.70;99.90
12771;DHT22;6449;47.666;9.160;2023-05-07T23:50:56;14.50;99.90
12771;DHT22;6449;47.666;9.160;2023-05-07T23:55:49;14.50;99.90
